Time;durP1;ratioP1;P1;durP2;ratioP2;P2;SDS_P1;SDS_P2;PMS_P1;PMS_P2;Temp;Humidity;BMP_temperature;BMP_pressure;BME280_temperature;BME280_humidity;BME280_pressure;Samples;Min_cycle;Max_cycle;Signal;HPM_P1;HPM_P2
2023/04/18 00:00:56;;;;;;;25.42;14.40;;;;;;;8.02;100.00;102417.81;5073151;28;20055;-70
2023/04/18 00:03:22;;;;;;;33.85;15.32;;;;;;;8.05;100.00;102416.09;5073201;28;20512;-71
2023/04/18 00:05:47;;;;;;;25.33;14.10;;;;;;;8.01;100.00;102415.09;5073614;28;20069;-70
2023/04/18 00:08:13;;;;;;;25.48;14.75;;;;;;;7.99;100.00;102420.31;5073230;28;20056;-70
2023/04/18 00:10:39;;;;;;;25.88;14.35;;;;;;;7.96;100.00;102420.16;5073079;28;20060;-70
2023/04/18 00:13:04;;;;;;;24.45;14.27;;;;;;;7.91;100.00;102415.56;5073203;28;20383;-70
2023/04/18 00:15:30;;;;;;;25.50;15.27;;;;;;;7.79;100.00;102418.59;5073008;28;20036;-70
2023/04/18 00:17:55;;;;;;;26.58;15.07;;;;;;;7.79;100.00;102413.31;5073221;28;20463;-70
2023/04/18 00:20:24;;;;;;;27.95;15.05;;;;;;;7.73;100.00;102410.44;5072896;28;20457;-70
2023/04/18 00:22:52;;;;;;;25.58;14.60;;;;;;;7.73;100.00;102419.22;5072847;28;20032;-70
2023/04/18 00:25:17;;;;;;;24.83;14.43;;;;;;;7.65;100.00;102410.13;5072948;28;20143;-70
2023/04/18 00:27:43;;;;;;;24.58;14.25;;;;;;;7.59;100.00;102404.63;5072967;28;20036;-70
2023/04/18 00:30:08;;;;;;;25.60;15.07;;;;;;;7.58;100.00;102405.44;5072752;28;20025;-70
2023/04/18 00:32:34;;;;;;;24.83;14.88;;;;;;;7.50;100.00;102407.78;5073068;28;20189;-70
2023/04/18 00:34:59;;;;;;;25.85;15.00;;;;;;;7.45;100.00;102406.66;5072983;28;20078;-71
2023/04/18 00:37:25;;;;;;;26.33;14.73;;;;;;;7.32;100.00;102406.16;5072670;28;20028;-71
2023/04/18 00:39:52;;;;;;;26.08;15.60;;;;;;;7.30;100.00;102405.19;5072772;28;20082;-70
2023/04/18 00:42:19;;;;;;;26.70;15.48;;;;;;;7.33;100.00;102407.94;5072647;28;20111;-70
2023/04/18 00:44:44;;;;;;;26.35;15.52;;;;;;;7.27;100.00;102412.94;5071391;28;20381;-70
2023/04/18 00:47:09;;;;;;;26.20;15.77;;;;;;;7.27;100.00;102405.06;5072646;28;20051;-70
2023/04/18 00:49:35;;;;;;;25.83;15.27;;;;;;;7.26;100.00;102403.25;5072548;28;20032;-71
2023/04/18 00:52:00;;;;;;;26.73;15.52;;;;;;;7.20;100.00;102405.63;5072829;28;20112;-69
2023/04/18 00:54:27;;;;;;;25.90;15.38;;;;;;;7.23;100.00;102400.50;5071467;28;20029;-70
2023/04/18 00:56:52;;;;;;;26.98;15.32;;;;;;;7.22;100.00;102401.31;5072854;28;20430;-70
2023/04/18 00:59:17;;;;;;;25.55;14.82;;;;;;;7.27;100.00;102405.06;5071673;28;20025;-70
2023/04/18 01:01:43;;;;;;;27.40;15.55;;;;;;;7.25;100.00;102401.47;5072513;28;20502;-70
2023/04/18 01:04:09;;;;;;;26.15;15.57;;;;;;;7.20;100.00;102410.00;5072365;28;20060;-71
2023/04/18 01:06:35;;;;;;;26.15;15.20;;;;;;;7.23;100.00;102403.13;5072483;28;20063;-70
2023/04/18 01:09:01;;;;;;;24.83;14.75;;;;;;;7.17;100.00;102410.75;5072675;28;20024;-70
2023/04/18 01:11:27;;;;;;;26.73;14.50;;;;;;;7.12;100.00;102407.00;5071214;28;20032;-69
2023/04/18 01:14:06;;;;;;;25.80;14.75;;;;;;;7.15;100.00;102404.53;5072448;28;20032;-71
2023/04/18 01:16:32;;;;;;;24.98;14.43;;;;;;;7.09;100.00;102406.88;5072521;28;20475;-70
2023/04/18 01:18:58;;;;;;;26.17;15.10;;;;;;;7.06;100.00;102409.38;5072280;28;20498;-70
2023/04/18 01:21:25;;;;;;;24.52;14.45;;;;;;;6.97;100.00;102405.53;5072221;28;20033;-70
2023/04/18 01:23:52;;;;;;;25.05;14.77;;;;;;;6.98;100.00;102401.16;5072437;28;20029;-69
2023/04/18 01:26:17;;;;;;;25.83;14.50;;;;;;;6.91;100.00;102394.72;5072132;28;20024;-72
2023/04/18 01:28:43;;;;;;;25.73;14.82;;;;;;;6.82;100.00;102401.34;5072321;28;20024;-72
2023/04/18 01:31:08;;;;;;;25.25;15.00;;;;;;;6.79;100.00;102394.19;5072432;28;20032;-72
2023/04/18 01:33:33;;;;;;;25.10;14.55;;;;;;;6.69;100.00;102397.25;5072164;28;20036;-72
2023/04/18 01:35:59;;;;;;;24.85;14.35;;;;;;;6.61;100.00;102392.53;5072163;28;20491;-72
2023/04/18 01:38:24;;;;;;;24.73;14.35;;;;;;;6.66;100.00;102390.13;5072323;28;20029;-72
2023/04/18 01:40:50;;;;;;;25.95;14.60;;;;;;;6.63;100.00;102387.34;5072285;28;20037;-72
2023/04/18 01:43:15;;;;;;;25.50;14.85;;;;;;;6.53;100.00;102393.03;5072128;28;20467;-72
2023/04/18 01:45:40;;;;;;;25.70;14.85;;;;;;;6.50;100.00;102387.63;5072484;28;20055;-72
2023/04/18 01:48:06;;;;;;;25.60;15.05;;;;;;;6.47;100.00;102388.38;5071742;28;20392;-72
2023/04/18 01:50:31;;;;;;;25.33;14.55;;;;;;;6.39;100.00;102382.78;5072201;28;20156;-72
2023/04/18 01:52:57;;;;;;;25.27;15.15;;;;;;;6.36;100.00;102384.34;5070742;28;20119;-72
2023/04/18 01:55:22;;;;;;;26.50;15.05;;;;;;;6.30;100.00;102386.72;5071898;28;20386;-72
2023/04/18 01:57:49;;;;;;;25.63;14.98;;;;;;;6.22;100.00;102381.13;5072168;28;20465;-72
2023/04/18 02:00:15;;;;;;;24.98;15.10;;;;;;;6.22;100.00;102387.25;5071887;28;20114;-72
2023/04/18 02:02:40;;;;;;;27.00;15.30;;;;;;;6.16;100.00;102381.72;5071870;28;20028;-72
2023/04/18 02:05:06;;;;;;;26.95;14.82;;;;;;;6.15;100.00;102389.53;5072131;28;20032;-70
2023/04/18 02:07:32;;;;;;;26.27;15.43;;;;;;;6.09;100.00;102371.75;5070699;28;20033;-70
2023/04/18 02:09:57;;;;;;;25.52;15.02;;;;;;;6.09;100.00;102375.25;5071863;28;20467;-70
2023/04/18 02:12:22;;;;;;;25.80;15.10;;;;;;;6.07;100.00;102383.88;5074995;28;20079;-70
2023/04/18 02:14:53;;;;;;;25.65;14.63;;;;;;;6.06;100.00;102387.38;5075286;28;20032;-70
2023/04/18 02:17:22;;;;;;;27.67;16.70;;;;;;;5.99;100.00;102385.28;5075298;28;20039;-70
2023/04/18 02:19:49;;;;;;;26.98;15.57;;;;;;;5.97;100.00;102381.63;5075357;28;20092;-70
2023/04/18 02:22:14;;;;;;;25.30;15.15;;;;;;;5.92;100.00;102382.28;5075279;28;20031;-70
2023/04/18 02:24:39;;;;;;;25.83;15.23;;;;;;;5.93;100.00;102385.84;5075083;28;20056;-70
2023/04/18 02:27:05;;;;;;;25.30;14.88;;;;;;;5.87;100.00;102375.06;5075352;28;20056;-70
2023/04/18 02:29:30;;;;;;;26.02;15.27;;;;;;;5.79;100.00;102385.16;5075394;28;20041;-70
2023/04/18 02:31:57;;;;;;;25.00;14.98;;;;;;;5.78;100.00;102372.84;5075016;28;20111;-70
2023/04/18 02:34:22;;;;;;;25.02;14.77;;;;;;;5.76;100.00;102370.16;5075226;28;20081;-70
2023/04/18 02:36:47;;;;;;;25.05;14.77;;;;;;;5.72;100.00;102375.19;5074858;28;20029;-70
2023/04/18 02:39:13;;;;;;;25.73;15.25;;;;;;;5.61;100.00;102373.75;5075019;28;20414;-70
2023/04/18 02:41:38;;;;;;;25.88;15.07;;;;;;;5.56;100.00;102374.47;5074942;28;20102;-70
2023/04/18 02:44:05;;;;;;;26.58;15.25;;;;;;;5.48;100.00;102372.28;5074862;28;20595;-70
2023/04/18 02:46:31;;;;;;;25.40;14.82;;;;;;;5.52;100.00;102372.50;5074754;28;20046;-70
2023/04/18 02:48:56;;;;;;;25.88;15.40;;;;;;;5.47;100.00;102371.38;5074765;28;20045;-70
2023/04/18 02:51:22;;;;;;;25.13;14.80;;;;;;;5.41;100.00;102376.31;5074652;28;20028;-70
2023/04/18 02:53:47;;;;;;;24.63;14.70;;;;;;;5.40;100.00;102372.81;5075083;28;20037;-70
2023/04/18 02:56:16;;;;;;;26.35;15.48;;;;;;;5.35;100.00;102373.41;5074584;28;20024;-70
2023/04/18 02:58:41;;;;;;;26.00;14.90;;;;;;;5.34;100.00;102368.97;5074523;28;20506;-70
2023/04/18 03:01:07;;;;;;;24.92;14.70;;;;;;;5.34;100.00;102368.97;5074660;28;20028;-70
2023/04/18 03:03:32;;;;;;;26.10;15.43;;;;;;;5.26;100.00;102373.81;5074400;28;20029;-70
2023/04/18 03:05:59;;;;;;;26.10;15.18;;;;;;;5.26;100.00;102373.81;5074419;28;20035;-72
2023/04/18 03:08:24;;;;;;;25.48;14.90;;;;;;;5.20;100.00;102365.66;5074518;28;20029;-72
2023/04/18 03:10:49;;;;;;;25.65;15.27;;;;;;;5.19;100.00;102367.38;5074299;28;20061;-72
2023/04/18 03:13:15;;;;;;;25.67;15.77;;;;;;;5.17;100.00;102373.34;5074251;28;20060;-72
2023/04/18 03:15:41;;;;;;;28.33;15.43;;;;;;;5.14;100.00;102368.88;5074393;28;20036;-72
2023/04/18 03:18:06;;;;;;;26.17;15.38;;;;;;;5.06;100.00;102364.94;5074067;28;20052;-72
2023/04/18 03:20:32;;;;;;;25.70;15.10;;;;;;;5.04;100.00;102374.47;5074029;28;20035;-72
2023/04/18 03:22:57;;;;;;;25.80;15.38;;;;;;;4.98;100.00;102371.50;5073379;28;20035;-72
2023/04/18 03:25:22;;;;;;;27.00;16.10;;;;;;;4.97;100.00;102369.72;5073870;28;20472;-72
2023/04/18 03:27:48;;;;;;;25.98;15.93;;;;;;;4.91;100.00;102369.38;5073989;28;20380;-72
2023/04/18 03:30:13;;;;;;;26.83;16.13;;;;;;;4.88;100.00;102376.28;5074118;28;20032;-72
2023/04/18 03:32:40;;;;;;;25.77;15.63;;;;;;;4.87;100.00;102378.81;5073866;28;20364;-72
2023/04/18 03:35:06;;;;;;;25.20;15.45;;;;;;;4.82;100.00;102380.28;5073766;28;20081;-72
2023/04/18 03:37:31;;;;;;;25.17;15.23;;;;;;;4.80;100.00;102372.34;5073980;28;20511;-72
2023/04/18 03:39:57;;;;;;;26.48;15.13;;;;;;;4.79;100.00;102372.28;5073585;28;20442;-72
2023/04/18 03:42:22;;;;;;;26.23;15.95;;;;;;;4.73;100.00;102378.09;5073769;28;20480;-72
2023/04/18 03:44:47;;;;;;;26.88;15.70;;;;;;;4.68;100.00;102376.97;5073642;28;20024;-72
2023/04/18 03:47:16;;;;;;;25.52;15.20;;;;;;;4.66;100.00;102373.34;5069314;28;20609;-72
2023/04/18 03:49:42;;;;;;;26.52;15.85;;;;;;;4.66;100.00;102375.97;5073701;28;20047;-72
2023/04/18 03:52:07;;;;;;;24.95;15.30;;;;;;;4.62;100.00;102380.16;5073428;28;20025;-72
2023/04/18 03:54:32;;;;;;;25.83;15.68;;;;;;;4.59;100.00;102381.69;5073613;28;20063;-72
2023/04/18 03:56:58;;;;;;;26.05;15.65;;;;;;;4.57;100.00;102380.72;5073605;28;20039;-72
2023/04/18 03:59:24;;;;;;;26.80;15.77;;;;;;;4.53;100.00;102375.31;5073346;28;20028;-72
2023/04/18 04:01:49;;;;;;;25.63;15.45;;;;;;;4.53;100.00;102383.19;5073394;28;20085;-72
2023/04/18 04:04:15;;;;;;;25.42;15.82;;;;;;;4.45;100.00;102383.59;5073530;28;20031;-72
2023/04/18 04:06:40;;;;;;;26.42;15.68;;;;;;;4.47;100.00;102382.84;5073173;28;20108;-72
2023/04/18 04:09:06;;;;;;;25.95;15.60;;;;;;;4.43;100.00;102383.50;5073236;28;20056;-72
2023/04/18 04:11:31;;;;;;;25.95;15.63;;;;;;;4.41;100.00;102377.25;5073271;28;20482;-70
2023/04/18 04:13:56;;;;;;;25.85;15.50;;;;;;;4.36;100.00;102376.13;5072961;28;20056;-70
2023/04/18 04:16:22;;;;;;;26.35;16.17;;;;;;;4.36;100.00;102384.00;5073284;28;20025;-71
2023/04/18 04:18:47;;;;;;;26.10;16.02;;;;;;;4.35;100.00;102384.78;5073273;28;20024;-70
2023/04/18 04:21:12;;;;;;;26.17;15.73;;;;;;;4.31;100.00;102382.81;5072916;28;20064;-70
2023/04/18 04:23:41;;;;;;;25.92;16.27;;;;;;;4.27;100.00;102378.25;5073223;28;20146;-70
2023/04/18 04:26:07;;;;;;;26.85;14.80;;;;;;;4.24;100.00;102381.59;5072956;28;20074;-70
2023/04/18 04:28:34;;;;;;;25.08;15.10;;;;;;;4.25;100.00;102379.88;5073178;28;20029;-70
2023/04/18 04:31:00;;;;;;;25.80;15.50;;;;;;;4.17;100.00;102382.97;5072779;28;20029;-71
2023/04/18 04:33:32;;;;;;;25.90;15.10;;;;;;;4.18;100.00;102382.16;5071518;28;20352;-70
2023/04/18 04:35:57;;;;;;;26.10;15.18;;;;;;;4.16;100.00;102390.75;5072735;28;20467;-70
2023/04/18 04:38:23;;;;;;;25.20;15.32;;;;;;;4.18;100.00;102384.78;5072719;28;20031;-70
2023/04/18 04:40:49;;;;;;;25.58;15.55;;;;;;;4.13;100.00;102386.25;5072862;28;20028;-70
2023/04/18 04:43:15;;;;;;;25.73;15.73;;;;;;;4.17;100.00;102382.09;5072712;28;20099;-70
2023/04/18 04:45:48;;;;;;;26.17;15.75;;;;;;;4.09;100.00;102389.53;5072649;28;20059;-70
2023/04/18 04:48:14;;;;;;;25.60;15.35;;;;;;;4.13;100.00;102395.81;5072525;28;20048;-70
2023/04/18 04:50:41;;;;;;;25.73;15.52;;;;;;;4.08;100.00;102395.56;5072855;28;20072;-72
2023/04/18 04:53:07;;;;;;;25.40;15.25;;;;;;;4.07;100.00;102395.47;5072582;28;20075;-72
2023/04/18 04:55:33;;;;;;;26.60;15.30;;;;;;;4.10;100.00;102396.53;5072719;28;20025;-72
2023/04/18 04:57:58;;;;;;;25.15;15.32;;;;;;;4.08;100.00;102398.19;5072526;28;20098;-72
2023/04/18 05:00:23;;;;;;;26.45;15.50;;;;;;;4.07;100.00;102396.38;5072398;28;20037;-72
2023/04/18 05:02:52;;;;;;;27.35;16.33;;;;;;;4.04;100.00;102404.06;5072684;28;20025;-72
2023/04/18 05:05:17;;;;;;;25.60;15.43;;;;;;;4.01;100.00;102393.44;5072494;28;20025;-72
2023/04/18 05:07:43;;;;;;;26.00;15.20;;;;;;;4.00;100.00;102397.75;5072418;28;20124;-72
2023/04/18 05:10:08;;;;;;;26.45;15.07;;;;;;;4.07;100.00;102408.56;5072604;28;20523;-72
2023/04/18 05:12:34;;;;;;;25.98;15.13;;;;;;;4.09;100.00;102401.69;5072240;28;20040;-72
2023/04/18 05:14:59;;;;;;;26.20;14.88;;;;;;;4.13;100.00;102395.81;5071135;28;20061;-72
2023/04/18 05:17:24;;;;;;;25.13;15.15;;;;;;;4.11;100.00;102400.09;5072677;28;20115;-72
2023/04/18 05:19:50;;;;;;;26.35;15.23;;;;;;;4.16;100.00;102404.72;5072212;28;20029;-72
2023/04/18 05:22:16;;;;;;;25.88;15.07;;;;;;;4.14;100.00;102406.38;5072524;28;20032;-72
2023/04/18 05:24:41;;;;;;;24.80;14.63;;;;;;;4.15;100.00;102400.34;5072350;28;20032;-72
2023/04/18 05:27:06;;;;;;;25.33;14.23;;;;;;;4.16;100.00;102404.72;5072130;28;20379;-70
2023/04/18 05:29:32;;;;;;;25.13;14.73;;;;;;;4.22;100.00;102400.66;5072464;28;20464;-71
2023/04/18 05:31:57;;;;;;;24.60;14.48;;;;;;;4.23;100.00;102405.97;5072138;28;20101;-69
2023/04/18 05:34:23;;;;;;;24.88;14.25;;;;;;;4.29;100.00;102414.16;5072482;28;20183;-69
2023/04/18 05:36:48;;;;;;;24.70;14.13;;;;;;;4.33;100.00;102412.63;5067379;28;20033;-69
2023/04/18 05:39:14;;;;;;;24.67;14.07;;;;;;;4.35;100.00;102410.97;5060232;28;20036;-70
2023/04/18 05:41:39;;;;;;;26.25;15.13;;;;;;;4.42;100.00;102426.22;5066473;28;20029;-71
2023/04/18 05:44:04;;;;;;;27.33;14.90;;;;;;;4.54;100.00;102416.44;5071167;28;20372;-70
2023/04/18 05:46:30;;;;;;;25.85;15.02;;;;;;;4.74;100.00;102424.44;5074793;28;20528;-70
2023/04/18 05:48:55;;;;;;;27.70;15.98;;;;;;;4.89;100.00;102427.88;5073070;28;20077;-71
2023/04/18 05:51:21;;;;;;;27.35;16.40;;;;;;;5.10;100.00;102427.19;5072806;28;20040;-70
2023/04/18 05:53:46;;;;;;;25.40;14.85;;;;;;;5.23;100.00;102426.13;5076095;28;20399;-70
2023/04/18 05:56:12;;;;;;;24.83;14.43;;;;;;;5.38;100.00;102428.63;5071591;28;20093;-69
2023/04/18 05:58:37;;;;;;;25.17;14.70;;;;;;;5.52;100.00;102434.53;5068177;28;20052;-70
2023/04/18 06:01:03;;;;;;;25.25;14.23;;;;;;;5.62;100.00;102436.84;5070662;28;20493;-71
2023/04/18 06:03:28;;;;;;;25.70;14.70;;;;;;;5.72;100.00;102435.53;5073817;28;20556;-70
2023/04/18 06:05:53;;;;;;;25.10;14.55;;;;;;;5.86;100.00;102445.00;5069748;28;20060;-71
2023/04/18 06:08:19;;;;;;;26.88;14.80;;;;;;;6.01;100.00;102441.38;5076137;28;20473;-71
2023/04/18 06:10:44;;;;;;;25.30;14.05;;;;;;;6.07;100.00;102442.56;5071590;28;20126;-70
2023/04/18 06:13:09;;;;;;;25.13;14.50;;;;;;;6.13;100.00;102441.97;5067617;28;20037;-70
2023/04/18 06:15:35;;;;;;;24.90;14.75;;;;;;;6.19;100.00;102444.88;5077254;28;20037;-71
2023/04/18 06:18:00;;;;;;;25.33;14.02;;;;;;;6.28;100.00;102442.69;5075117;28;20029;-72
2023/04/18 06:20:25;;;;;;;24.85;14.18;;;;;;;6.32;100.00;102449.00;5072763;28;20032;-71
2023/04/18 06:22:51;;;;;;;25.58;14.18;;;;;;;6.35;100.00;102450.84;5071647;28;20447;-70
2023/04/18 06:25:16;;;;;;;25.23;14.80;;;;;;;6.37;100.00;102444.84;5073358;28;20470;-71
2023/04/18 06:27:42;;;;;;;24.88;14.38;;;;;;;6.38;100.00;102456.28;5069482;28;20433;-71
2023/04/18 06:30:07;;;;;;;25.17;14.57;;;;;;;6.43;100.00;102457.38;5071914;28;20032;-71
2023/04/18 06:32:33;;;;;;;25.38;14.48;;;;;;;6.49;100.00;102457.66;5073741;28;20063;-71
2023/04/18 06:34:58;;;;;;;24.52;14.27;;;;;;;6.59;100.00;102453.72;5069711;28;20070;-71
2023/04/18 06:37:24;;;;;;;25.27;14.23;;;;;;;6.69;100.00;102445.44;5070182;28;20498;-71
2023/04/18 06:39:49;;;;;;;24.40;14.05;;;;;;;6.75;100.00;102450.97;5063587;28;20033;-72
2023/04/18 06:42:15;;;;;;;24.02;13.88;;;;;;;6.86;100.00;102453.19;5074376;28;20036;-71
2023/04/18 06:44:41;;;;;;;24.67;13.82;;;;;;;6.96;100.00;102443.16;5069991;28;20025;-70
2023/04/18 06:47:08;;;;;;;24.17;13.60;;;;;;;7.01;100.00;102453.88;5074594;28;20028;-70
2023/04/18 06:49:33;;;;;;;25.15;13.88;;;;;;;7.12;100.00;102454.34;5071153;28;20040;-72
2023/04/18 06:51:59;;;;;;;25.23;14.45;;;;;;;7.22;100.00;102456.56;5072840;28;20059;-71
2023/04/18 06:54:24;;;;;;;24.23;13.13;;;;;;;7.29;100.00;102458.63;5068819;28;20056;-70
2023/04/18 06:56:50;;;;;;;24.15;13.77;;;;;;;7.30;100.00;102459.53;5069973;28;20025;-71
2023/04/18 06:59:16;;;;;;;23.63;13.13;;;;;;;7.37;100.00;102460.69;5070352;28;20028;-71
2023/04/18 07:01:41;;;;;;;24.80;13.70;;;;;;;7.45;100.00;102461.94;5071131;28;20028;-70
2023/04/18 07:04:07;;;;;;;24.70;13.60;;;;;;;7.54;100.00;102461.41;5070652;28;20391;-71
2023/04/18 07:06:33;;;;;;;24.25;13.20;;;;;;;7.56;100.00;102457.09;5068171;28;20123;-73
2023/04/18 07:09:00;;;;;;;27.90;13.98;;;;;;;7.52;100.00;102474.50;5066752;28;20495;-72
2023/04/18 07:11:26;;;;;;;24.00;13.07;;;;;;;7.54;100.00;102457.03;5067357;28;20029;-71
2023/04/18 07:13:51;;;;;;;24.80;13.15;;;;;;;7.59;100.00;102465.16;5074521;28;20519;-70
2023/04/18 07:16:16;;;;;;;24.95;13.25;;;;;;;7.56;100.00;102465.91;5071001;28;20471;-70
2023/04/18 07:18:42;;;;;;;23.60;12.93;;;;;;;7.57;100.00;102466.81;5069432;28;20056;-71
2023/04/18 07:21:07;;;;;;;23.42;13.18;;;;;;;7.46;100.00;102471.63;5068907;28;20033;-71
2023/04/18 07:23:33;;;;;;;24.15;13.48;;;;;;;7.50;100.00;102476.19;5069358;28;20037;-70
2023/04/18 07:26:00;;;;;;;24.77;13.63;;;;;;;7.50;100.00;102469.19;5069651;28;20568;-70
2023/04/18 07:28:26;;;;;;;22.80;12.68;;;;;;;7.52;100.00;102471.00;5064957;28;20071;-71
2023/04/18 07:30:51;;;;;;;23.48;13.57;;;;;;;7.57;100.00;102477.34;5069408;28;20100;-70
2023/04/18 07:33:16;;;;;;;23.92;13.10;;;;;;;7.68;100.00;102476.94;5069791;28;20028;-70
2023/04/18 07:35:44;;;;;;;24.13;13.18;;;;;;;7.80;100.00;102466.03;5067411;28;20464;-70
2023/04/18 07:38:11;;;;;;;23.73;13.43;;;;;;;7.80;100.00;102480.94;5070767;28;20391;-72
2023/04/18 07:40:36;;;;;;;23.90;13.63;;;;;;;7.97;100.00;102479.91;5070462;28;20035;-72
2023/04/18 07:43:02;;;;;;;24.20;12.93;;;;;;;8.16;100.00;102484.19;5071244;28;20029;-72
2023/04/18 07:45:27;;;;;;;23.10;13.07;;;;;;;8.19;100.00;102484.31;5067411;28;20364;-72
2023/04/18 07:47:53;;;;;;;23.60;12.68;;;;;;;8.12;100.00;102479.63;5068076;28;20115;-72
2023/04/18 07:50:18;;;;;;;23.45;12.57;;;;;;;7.96;100.00;102472.81;5070330;28;20376;-72
2023/04/18 07:52:46;;;;;;;24.60;13.32;;;;;;;7.97;100.00;102473.75;5071885;28;20498;-72
2023/04/18 07:55:12;;;;;;;22.80;12.10;;;;;;;8.21;100.00;102481.72;5072219;28;20059;-71
2023/04/18 07:57:38;;;;;;;22.77;12.30;;;;;;;8.41;100.00;102486.91;5073389;28;20078;-72
2023/04/18 08:00:05;;;;;;;22.50;12.43;;;;;;;8.70;100.00;102486.31;5073411;28;20040;-72
2023/04/18 08:02:30;;;;;;;23.52;12.30;;;;;;;8.88;100.00;102487.84;5073414;28;20032;-72
2023/04/18 08:04:56;;;;;;;26.50;12.55;;;;;;;9.16;99.84;102486.22;5073218;28;20494;-72
2023/04/18 08:07:21;;;;;;;23.08;12.55;;;;;;;9.45;96.72;102494.31;5072017;28;20493;-71
2023/04/18 08:09:47;;;;;;;22.60;11.73;;;;;;;9.53;93.51;102491.09;5072943;28;20032;-72
2023/04/18 08:12:12;;;;;;;22.60;11.50;;;;;;;9.53;92.29;102487.56;5073213;28;20039;-70
2023/04/18 08:14:37;;;;;;;25.45;12.02;;;;;;;9.45;89.02;102499.56;5073201;28;20035;-71
2023/04/18 08:17:03;;;;;;;21.73;11.07;;;;;;;9.38;92.61;102503.75;5073323;28;20417;-71
2023/04/18 08:19:28;;;;;;;22.20;11.45;;;;;;;9.39;95.02;102501.19;5072968;28;20425;-71
2023/04/18 08:22:07;;;;;;;21.77;11.13;;;;;;;9.45;91.92;102496.94;5073082;28;20063;-70
2023/04/18 08:24:33;;;;;;;24.13;11.88;;;;;;;9.26;90.80;102493.63;5069124;28;20024;-70
2023/04/18 08:26:58;;;;;;;22.45;11.70;;;;;;;9.12;91.87;102506.34;5072824;28;20021;-70
2023/04/18 08:29:23;;;;;;;21.90;11.70;;;;;;;8.94;92.51;102496.03;5071595;28;20033;-70
2023/04/18 08:31:49;;;;;;;22.58;11.60;;;;;;;8.89;94.12;102495.81;5073090;28;20024;-70
2023/04/18 08:34:14;;;;;;;22.45;11.30;;;;;;;8.91;93.41;102503.78;5071572;28;20040;-70
2023/04/18 08:36:39;;;;;;;22.52;12.27;;;;;;;8.85;95.31;102509.75;5072806;28;20056;-70
2023/04/18 08:39:06;;;;;;;22.23;12.07;;;;;;;8.96;98.35;102504.88;5072922;28;20020;-70
2023/04/18 08:41:36;;;;;;;22.48;11.90;;;;;;;9.08;98.28;102494.75;5072606;28;20148;-70
2023/04/18 08:44:02;;;;;;;23.23;12.05;;;;;;;9.35;94.52;102498.34;5072687;28;20017;-70
2023/04/18 08:46:28;;;;;;;23.35;11.70;;;;;;;9.68;94.09;102503.91;5072777;28;20037;-70
2023/04/18 08:48:57;;;;;;;22.42;12.10;;;;;;;9.85;92.41;102493.94;5072511;28;21039;-70
2023/04/18 08:51:23;;;;;;;22.52;12.10;;;;;;;9.92;90.99;102497.69;5072629;28;20028;-71
2023/04/18 08:53:49;;;;;;;21.83;11.35;;;;;;;10.02;89.32;102496.22;5072690;28;20031;-71
2023/04/18 08:56:15;;;;;;;22.52;11.80;;;;;;;10.17;89.62;102498.50;5072496;28;20387;-75
2023/04/18 08:58:41;;;;;;;21.55;11.25;;;;;;;10.37;87.38;102489.47;5072584;28;20029;-73
2023/04/18 09:01:06;;;;;;;21.85;11.75;;;;;;;10.49;85.89;102482.78;5072661;28;20111;-71
2023/04/18 09:03:38;;;;;;;22.10;11.52;;;;;;;10.79;84.74;102483.72;5072463;28;20033;-71
2023/04/18 09:06:07;;;;;;;21.83;11.30;;;;;;;11.41;82.35;102489.84;5068542;28;20067;-72
2023/04/18 09:08:34;;;;;;;21.52;11.40;;;;;;;11.60;78.98;102473.56;5068496;28;20128;-75
2023/04/18 09:11:28;;;;;;;21.20;11.30;;;;;;;11.67;77.31;102477.28;5072424;28;20102;-71
2023/04/18 09:13:55;;;;;;;22.08;11.02;;;;;;;12.37;76.72;102474.56;5070990;28;20024;-72
2023/04/18 09:16:21;;;;;;;21.73;11.13;;;;;;;13.41;68.77;102469.66;5072272;28;20027;-72
2023/04/18 09:19:16;;;;;;;22.55;11.18;;;;;;;13.11;69.89;102475.25;5071274;28;20024;-72
2023/04/18 09:21:45;;;;;;;22.70;11.20;;;;;;;12.53;68.28;102482.00;5071686;28;20045;-71
2023/04/18 09:24:27;;;;;;;21.15;11.10;;;;;;;12.10;67.37;102481.03;5071358;28;20021;-71
2023/04/18 09:26:54;;;;;;;;;;;;;;;12.02;67.10;102472.00;5073159;28;20021;-72
2023/04/18 09:29:41;;;;;;;21.63;11.02;;;;;;;12.25;66.25;102467.25;5075891;28;20375;-71
2023/04/18 09:32:06;;;;;;;21.10;10.13;;;;;;;11.79;65.01;102480.22;5063955;28;20041;-71
2023/04/18 09:34:32;;;;;;;21.88;11.07;;;;;;;11.56;68.65;102479.63;5075829;28;20044;-71
2023/04/18 09:37:12;;;;;;;21.33;10.65;;;;;;;11.65;68.60;102479.88;5076179;28;20386;-72
2023/04/18 09:39:39;;;;;;;21.88;10.10;;;;;;;11.64;68.71;102479.84;5076230;28;20048;-71
2023/04/18 09:42:05;;;;;;;21.83;10.40;;;;;;;11.38;70.75;102466.81;5075850;28;20050;-72
2023/04/18 09:44:31;;;;;;;21.23;10.30;;;;;;;11.15;69.94;102469.75;5075922;28;20371;-71
2023/04/18 09:46:56;;;;;;;21.02;10.27;;;;;;;11.03;71.67;102450.84;5075990;28;20021;-71
2023/04/18 09:49:22;;;;;;;21.48;10.13;;;;;;;11.13;71.24;102458.19;5075719;28;20044;-72
2023/04/18 09:51:50;;;;;;;21.35;10.00;;;;;;;12.78;67.92;102456.00;5075976;28;20037;-71
2023/04/18 09:54:17;;;;;;;20.50;9.70;;;;;;;13.03;64.29;102451.19;5076056;28;20048;-71
2023/04/18 09:56:49;;;;;;;20.42;9.30;;;;;;;13.38;62.55;102446.59;5075756;28;20032;-71
2023/04/18 09:59:18;;;;;;;21.88;8.80;;;;;;;13.23;60.82;102449.81;5072316;28;20071;-71
2023/04/18 10:01:46;;;;;;;19.85;8.77;;;;;;;12.59;61.55;102448.53;5072086;28;20028;-71
2023/04/18 10:04:13;;;;;;;19.88;9.23;;;;;;;12.15;62.46;102442.25;5074426;28;20134;-71
2023/04/18 10:06:40;;;;;;;20.02;8.90;;;;;;;11.96;63.18;102448.00;5075528;28;20124;-71
2023/04/18 10:09:08;;;;;;;20.45;9.70;;;;;;;11.56;66.18;102466.38;5075678;28;20103;-70
2023/04/18 10:11:34;;;;;;;20.30;8.90;;;;;;;11.51;69.15;102455.69;5075457;28;20107;-71
2023/04/18 10:14:06;;;;;;;21.10;8.90;;;;;;;11.55;68.23;102458.41;5075313;28;20527;-70
2023/04/18 10:16:32;;;;;;;;;;;;;;;12.00;66.66;102453.41;5075882;28;20025;-71
2023/04/18 10:19:24;;;;;;;19.85;8.48;;;;;;;11.65;65.06;102468.41;5075204;28;19946;-71
2023/04/18 10:21:58;;;;;;;19.30;8.57;;;;;;;11.28;68.50;102464.78;5072825;28;20058;-71
2023/04/18 10:24:52;;;;;;;19.10;7.95;;;;;;;11.23;67.59;102450.53;5075075;28;20475;-70
2023/04/18 10:27:38;;;;;;;18.55;7.40;;;;;;;10.91;68.25;102467.28;5066695;28;20403;-71
2023/04/18 10:30:04;;;;;;;19.35;7.70;;;;;;;10.70;67.86;102458.72;5075183;28;20036;-71
2023/04/18 10:32:30;;;;;;;19.25;7.40;;;;;;;10.57;68.85;102455.72;5074843;28;20487;-71
2023/04/18 10:34:55;;;;;;;19.00;7.22;;;;;;;10.65;69.49;102466.53;5074927;28;20029;-71
2023/04/18 10:37:20;;;;;;;18.20;6.90;;;;;;;10.89;68.54;102458.44;5073928;28;20021;-71
2023/04/18 10:39:57;;;;;;;18.27;6.65;;;;;;;11.19;66.41;102465.41;5074858;28;20020;-71
2023/04/18 10:42:44;;;;;;;22.33;7.05;;;;;;;11.54;66.06;102469.88;5073576;28;20391;-71
2023/04/18 10:45:20;;;;;;;18.45;7.30;;;;;;;11.42;63.84;102463.38;5074731;28;20103;-71
2023/04/18 10:47:46;;;;;;;18.40;6.60;;;;;;;11.43;64.33;102473.13;5071436;28;20025;-71
2023/04/18 10:50:12;;;;;;;18.42;7.03;;;;;;;11.63;64.79;102457.75;5074593;28;20557;-71
2023/04/18 10:52:38;;;;;;;18.55;7.30;;;;;;;11.85;64.36;102461.84;5074514;28;20037;-71
2023/04/18 10:55:07;;;;;;;18.77;7.50;;;;;;;12.38;63.15;102464.00;5074778;28;20493;-72
2023/04/18 10:57:37;;;;;;;19.35;7.57;;;;;;;13.51;62.90;102466.28;5074513;28;20040;-70
2023/04/18 11:00:04;;;;;;;18.92;7.68;;;;;;;13.86;58.02;102466.03;5074479;28;20024;-70
2023/04/18 11:02:31;;;;;;;18.90;7.72;;;;;;;13.55;59.46;102468.13;5074336;28;20036;-70
2023/04/18 11:05:00;;;;;;;19.00;7.78;;;;;;;12.92;59.10;102464.25;5073305;28;20056;-70
2023/04/18 11:07:31;;;;;;;19.25;7.80;;;;;;;12.26;62.23;102460.16;5074324;28;20063;-70
2023/04/18 11:09:57;;;;;;;19.52;8.00;;;;;;;11.79;63.41;102456.38;5074341;28;20426;-70